Time;durP1;ratioP1;P1;durP2;ratioP2;P2;SDS_P1;SDS_P2;PMS_P1;PMS_P2;Temp;Humidity;BMP_temperature;BMP_pressure;BME280_temperature;BME280_humidity;BME280_pressure;Samples;Min_cycle;Max_cycle;Signal;HPM_P1;HPM_P2
2021/12/01 00:00:24;;;;;;;23.33;2.30;;;8.10;47.30;;;;;;5033586;28;20231;-66
2021/12/01 00:02:53;;;;;;;29.17;2.60;;;8.30;47.50;;;;;;5021394;28;20565;-63
2021/12/01 00:05:20;;;;;;;16.05;1.80;;;8.30;47.50;;;;;;5025320;28;20215;-63
2021/12/01 00:07:46;;;;;;;12.30;1.98;;;8.10;47.70;;;;;;5026526;22;20627;-64
2021/12/01 00:10:12;;;;;;;9.75;1.70;;;8.20;49.70;;;;;;4997639;28;20262;-64
2021/12/01 00:12:38;;;;;;;9.70;1.90;;;8.10;50.20;;;;;;5001689;28;20324;-64
2021/12/01 00:15:05;;;;;;;11.27;2.10;;;8.70;47.40;;;;;;4997794;28;20179;-65
2021/12/01 00:17:31;;;;;;;9.90;1.88;;;9.20;45.20;;;;;;4985170;28;20221;-65
2021/12/01 00:19:59;;;;;;;10.73;1.87;;;9.60;43.30;;;;;;4982295;28;20174;-66
2021/12/01 00:22:25;;;;;;;7.30;1.73;;;8.40;46.50;;;;;;4989114;28;20565;-64
2021/12/01 00:24:51;;;;;;;11.10;2.13;;;8.50;48.20;;;;;;4986860;28;20202;-64
2021/12/01 00:27:17;;;;;;;8.07;1.77;;;8.80;45.80;;;;;;4984977;28;20626;-70
2021/12/01 00:29:42;;;;;;;9.93;1.80;;;8.60;46.60;;;;;;4984516;28;20553;-63
2021/12/01 00:32:09;;;;;;;10.77;1.87;;;8.30;47.30;;;;;;4981239;28;20655;-63
2021/12/01 00:34:34;;;;;;;9.50;1.77;;;8.80;47.60;;;;;;4976534;28;20167;-64
2021/12/01 00:37:00;;;;;;;9.70;1.70;;;8.20;48.00;;;;;;4984270;28;20220;-65
2021/12/01 00:39:26;;;;;;;14.13;2.13;;;8.30;48.10;;;;;;4981086;28;20209;-64
2021/12/01 00:41:52;;;;;;;9.53;1.90;;;8.40;47.50;;;;;;4979917;28;20187;-64
2021/12/01 00:44:18;;;;;;;6.07;1.40;;;8.50;47.50;;;;;;4993619;28;20662;-64
2021/12/01 00:47:04;;;;;;;9.67;1.93;;;8.80;46.20;;;;;;4987327;28;20223;-64
2021/12/01 00:49:32;;;;;;;10.13;1.95;;;8.10;47.90;;;;;;4973321;28;20427;-68
2021/12/01 00:51:58;;;;;;;10.63;2.08;;;7.90;49.30;;;;;;4974996;28;20637;-66
2021/12/01 00:54:23;;;;;;;9.70;1.97;;;7.90;50.20;;;;;;4973105;28;20186;-68
2021/12/01 00:56:49;;;;;;;7.20;1.67;;;8.30;48.10;;;;;;4972586;28;20293;-65
2021/12/01 00:59:16;;;;;;;11.27;1.83;;;8.60;46.30;;;;;;4973992;28;20183;-64
2021/12/01 01:01:42;;;;;;;6.85;1.63;;;8.70;46.50;;;;;;4977800;28;20546;-64
2021/12/01 01:04:08;;;;;;;7.68;1.50;;;8.80;45.80;;;;;;4974311;28;20212;-66
2021/12/01 01:06:35;;;;;;;10.38;1.95;;;9.30;43.90;;;;;;4956244;28;20222;-64
2021/12/01 01:09:01;;;;;;;9.15;1.80;;;8.80;45.40;;;;;;4991502;28;20174;-66
2021/12/01 01:16:58;;;;;;;8.38;1.65;;;9.40;44.40;;;;;;4972306;28;20229;-66
2021/12/01 01:19:25;;;;;;;8.57;1.60;;;9.80;42.30;;;;;;4973457;28;20178;-64
2021/12/01 01:21:52;;;;;;;8.82;1.88;;;8.80;44.40;;;;;;4972761;28;20181;-68
2021/12/01 01:24:19;;;;;;;10.50;2.08;;;9.10;44.70;;;;;;4972384;28;20195;-64
2021/12/01 01:26:45;;;;;;;9.38;1.67;;;9.30;44.60;;;;;;4972073;28;20214;-64
2021/12/01 01:29:11;;;;;;;8.32;1.73;;;8.40;46.60;;;;;;4972813;28;20266;-67
2021/12/01 01:31:37;;;;;;;8.00;1.70;;;8.50;47.20;;;;;;4977779;28;20695;-66
2021/12/01 01:34:04;;;;;;;11.85;2.25;;;8.60;47.20;;;;;;4975268;28;20178;-65
2021/12/01 01:36:30;;;;;;;8.90;1.83;;;8.70;46.40;;;;;;4982974;28;20216;-66
2021/12/01 01:38:57;;;;;;;12.73;2.20;;;8.50;48.80;;;;;;4973148;28;20180;-64
2021/12/01 01:41:24;;;;;;;9.18;1.70;;;8.20;52.20;;;;;;4973283;28;20194;-69
2021/12/01 01:43:51;;;;;;;9.23;2.00;;;8.40;52.90;;;;;;4972833;28;20710;-64
2021/12/01 01:46:18;;;;;;;9.93;2.08;;;9.00;49.10;;;;;;4971374;28;20294;-69
2021/12/01 01:48:53;;;;;;;7.70;1.70;;;9.10;48.90;;;;;;4976890;28;20744;-65
2021/12/01 01:51:22;;;;;;;9.45;1.98;;;9.70;46.00;;;;;;4972154;28;20174;-64
2021/12/01 01:53:50;;;;;;;8.85;1.90;;;9.50;45.60;;;;;;4982714;28;20186;-65
2021/12/01 01:56:16;;;;;;;7.25;1.75;;;8.80;49.30;;;;;;4971992;28;20644;-65
2021/12/01 01:58:42;;;;;;;7.23;1.73;;;8.80;48.30;;;;;;4968365;28;20202;-67
2021/12/01 02:01:11;;;;;;;9.97;2.00;;;9.20;46.90;;;;;;4971909;28;20436;-66
2021/12/01 02:03:47;;;;;;;7.47;1.65;;;9.40;46.40;;;;;;4972993;28;20182;-65
2021/12/01 02:06:13;;;;;;;14.50;2.92;;;9.50;45.70;;;;;;4971852;28;20671;-65
2021/12/01 02:08:42;;;;;;;9.20;1.85;;;9.70;45.20;;;;;;4975882;28;20214;-65
2021/12/01 02:11:12;;;;;;;8.68;1.70;;;9.60;44.30;;;;;;4973067;28;20217;-68
2021/12/01 02:13:41;;;;;;;9.23;1.73;;;9.60;45.50;;;;;;4972302;28;20262;-65
2021/12/01 02:16:08;;;;;;;13.55;2.90;;;9.70;44.80;;;;;;4971868;28;20193;-65
2021/12/01 02:18:34;;;;;;;8.98;2.22;;;10.30;42.50;;;;;;4971763;28;20744;-65
2021/12/01 02:21:27;;;;;;;9.03;2.10;;;10.30;41.90;;;;;;4972127;28;20265;-65
2021/12/01 02:23:56;;;;;;;5.57;1.52;;;10.50;40.20;;;;;;4972622;28;20440;-65
2021/12/01 02:26:22;;;;;;;10.25;1.80;;;10.70;39.30;;;;;;4976331;28;20211;-65
2021/12/01 02:28:50;;;;;;;17.67;2.83;;;10.40;40.40;;;;;;4976220;28;20197;-65
2021/12/01 02:31:16;;;;;;;9.32;1.95;;;10.00;40.80;;;;;;4961536;28;20437;-70
2021/12/01 02:33:43;;;;;;;9.55;1.80;;;9.60;42.70;;;;;;4980379;28;20235;-70
2021/12/01 02:36:10;;;;;;;10.27;2.22;;;9.00;45.20;;;;;;4984722;28;20188;-68
2021/12/01 02:38:37;;;;;;;10.07;1.90;;;9.40;44.80;;;;;;4975797;28;20253;-65
2021/12/01 02:41:03;;;;;;;7.88;1.75;;;9.60;43.90;;;;;;4976360;28;20188;-66
2021/12/01 02:43:29;;;;;;;9.10;1.73;;;9.60;42.80;;;;;;4975715;28;20198;-65
2021/12/01 02:45:55;;;;;;;10.25;2.13;;;8.80;45.80;;;;;;4975738;28;20179;-76
2021/12/01 02:48:22;;;;;;;7.77;1.57;;;8.80;46.10;;;;;;4975896;28;20204;-70
2021/12/01 02:50:49;;;;;;;10.18;2.10;;;9.30;44.80;;;;;;4976230;28;20556;-65
2021/12/01 02:53:15;;;;;;;10.10;1.80;;;9.10;45.00;;;;;;4975381;28;20192;-65
2021/12/01 02:55:53;;;;;;;10.68;2.38;;;9.20;45.50;;;;;;4963037;28;20173;-65
2021/12/01 02:58:21;;;;;;;8.55;1.65;;;9.10;44.50;;;;;;4974171;28;20294;-66
2021/12/01 03:00:48;;;;;;;10.80;1.88;;;8.80;45.90;;;;;;4977136;28;20182;-70
2021/12/01 03:03:14;;;;;;;9.90;2.05;;;9.10;45.00;;;;;;4974837;28;20189;-66
2021/12/01 03:05:40;;;;;;;13.25;2.42;;;9.40;44.70;;;;;;4975522;28;20188;-65
2021/12/01 03:08:07;;;;;;;7.68;1.83;;;10.00;41.00;;;;;;4974627;28;20236;-65
2021/12/01 03:10:32;;;;;;;10.50;1.90;;;9.70;43.00;;;;;;4975447;28;20192;-65
2021/12/01 03:12:58;;;;;;;11.63;2.10;;;9.90;43.40;;;;;;4979982;28;20650;-65
2021/12/01 03:15:24;;;;;;;7.07;1.63;;;9.60;43.10;;;;;;4975247;28;20175;-66
2021/12/01 03:17:49;;;;;;;9.00;1.80;;;9.60;43.50;;;;;;4974505;28;20204;-70
2021/12/01 03:20:20;;;;;;;7.80;1.90;;;9.80;43.00;;;;;;4974824;28;20234;-65
2021/12/01 03:22:46;;;;;;;18.77;2.88;;;10.20;41.10;;;;;;4975687;28;20588;-68
2021/12/01 03:25:13;;;;;;;9.70;1.80;;;10.30;40.10;;;;;;4974888;28;20189;-70
2021/12/01 03:27:39;;;;;;;9.40;2.05;;;10.00;41.00;;;;;;4974204;28;20476;-65
2021/12/01 03:30:10;;;;;;;9.35;1.90;;;9.90;42.80;;;;;;4974994;28;20393;-65
2021/12/01 03:32:36;;;;;;;8.43;1.73;;;9.90;42.80;;;;;;4976238;28;20235;-66
2021/12/01 03:35:07;;;;;;;8.18;1.70;;;10.10;41.70;;;;;;4973313;28;20192;-65
2021/12/01 03:37:33;;;;;;;6.88;1.65;;;10.20;41.70;;;;;;4974088;28;20263;-65
2021/12/01 03:39:59;;;;;;;9.20;1.80;;;10.10;40.70;;;;;;4985613;28;20222;-65
2021/12/01 03:42:26;;;;;;;8.60;1.83;;;9.80;43.30;;;;;;4974917;28;20280;-65
2021/12/01 03:44:53;;;;;;;11.48;2.28;;;9.80;43.70;;;;;;4974769;28;20681;-66
2021/12/01 03:47:19;;;;;;;8.48;1.70;;;10.00;42.80;;;;;;4971378;28;20216;-65
2021/12/01 03:49:44;;;;;;;9.27;2.00;;;10.60;40.20;;;;;;4974821;28;20200;-65
2021/12/01 03:52:15;;;;;;;8.53;1.93;;;10.50;40.20;;;;;;4974675;28;20173;-70
2021/12/01 03:54:41;;;;;;;8.77;2.00;;;10.30;41.00;;;;;;4974462;28;20212;-66
2021/12/01 03:57:06;;;;;;;8.13;1.77;;;10.00;41.70;;;;;;4972362;28;20216;-69
2021/12/01 03:59:32;;;;;;;8.47;2.23;;;10.10;41.80;;;;;;4979136;28;20281;-65
2021/12/01 04:01:58;;;;;;;9.90;2.07;;;9.90;43.40;;;;;;4979674;28;20586;-65
2021/12/01 04:04:23;;;;;;;9.07;1.80;;;10.20;41.60;;;;;;4975556;28;20469;-65
2021/12/01 04:06:49;;;;;;;9.33;2.23;;;10.80;39.50;;;;;;4973199;28;20686;-67
2021/12/01 04:09:14;;;;;;;8.27;1.90;;;11.00;38.80;;;;;;4974354;28;20395;-70
2021/12/01 04:11:40;;;;;;;11.17;2.10;;;10.80;40.00;;;;;;4974577;28;20187;-68
2021/12/01 04:14:06;;;;;;;8.57;1.97;;;10.50;41.80;;;;;;4973881;28;20185;-65
2021/12/01 04:16:31;;;;;;;6.43;1.80;;;10.70;39.90;;;;;;4971873;28;20205;-66
2021/12/01 04:18:57;;;;;;;11.17;2.23;;;10.60;39.70;;;;;;4974121;28;20189;-68
2021/12/01 04:21:25;;;;;;;8.50;1.97;;;10.80;39.70;;;;;;4974022;28;20178;-65
2021/12/01 04:23:51;;;;;;;8.88;1.80;;;10.80;40.40;;;;;;4982986;28;20178;-65
2021/12/01 04:26:20;;;;;;;8.90;1.90;;;10.90;39.60;;;;;;4975642;28;20754;-65
2021/12/01 04:28:46;;;;;;;14.30;2.67;;;10.80;40.00;;;;;;4973102;28;20263;-65
2021/12/01 04:31:12;;;;;;;5.97;1.60;;;10.70;40.20;;;;;;4973851;28;20719;-67
2021/12/01 04:33:38;;;;;;;8.17;1.70;;;10.50;41.00;;;;;;4973691;28;20177;-66
2021/12/01 04:36:04;;;;;;;10.70;2.33;;;10.60;40.40;;;;;;4978700;28;20430;-68
2021/12/01 04:38:29;;;;;;;8.57;1.70;;;10.30;40.90;;;;;;4965303;28;20456;-69
2021/12/01 04:40:55;;;;;;;8.57;1.70;;;10.20;41.30;;;;;;4972655;28;20439;-65
2021/12/01 04:43:21;;;;;;;9.47;1.90;;;9.60;44.10;;;;;;4973624;28;20184;-65
2021/12/01 04:45:52;;;;;;;10.00;1.90;;;9.40;45.80;;;;;;4978624;28;20265;-65
2021/12/01 04:48:17;;;;;;;8.13;1.80;;;9.50;45.70;;;;;;4970467;28;20206;-65
2021/12/01 04:50:43;;;;;;;10.40;2.00;;;9.60;45.00;;;;;;4970881;28;20175;-64
2021/12/01 04:53:09;;;;;;;8.60;1.63;;;10.20;42.40;;;;;;4973727;28;20590;-64
2021/12/01 04:55:35;;;;;;;9.93;2.27;;;10.20;44.00;;;;;;4974038;28;20263;-67
2021/12/01 04:58:00;;;;;;;10.00;2.20;;;10.20;43.20;;;;;;4972541;28;20200;-68
2021/12/01 05:00:27;;;;;;;9.07;1.70;;;10.20;41.70;;;;;;4972029;28;20182;-70
2021/12/01 05:02:53;;;;;;;10.45;2.00;;;10.30;42.10;;;;;;4971821;28;20965;-66
2021/12/01 05:05:19;;;;;;;6.65;1.73;;;10.00;44.20;;;;;;4978659;28;20194;-65
2021/12/01 05:07:45;;;;;;;9.10;1.90;;;10.30;41.40;;;;;;4973071;28;20220;-66
2021/12/01 05:10:11;;;;;;;8.90;1.80;;;9.30;45.10;;;;;;4972598;28;20236;-74
2021/12/01 05:12:37;;;;;;;9.67;2.00;;;9.30;46.70;;;;;;4967757;28;20432;-70
2021/12/01 05:15:05;;;;;;;10.50;2.05;;;9.40;46.10;;;;;;4973178;28;20424;-65
2021/12/01 05:17:31;;;;;;;9.05;1.70;;;9.60;45.40;;;;;;4982040;28;20606;-67
2021/12/01 05:19:57;;;;;;;9.73;2.17;;;9.70;45.60;;;;;;4982952;28;20552;-71
2021/12/01 05:22:23;;;;;;;8.90;1.70;;;9.90;43.90;;;;;;4971677;28;20197;-70
2021/12/01 05:24:48;;;;;;;9.93;2.10;;;9.90;43.60;;;;;;4965247;28;20487;-65
2021/12/01 05:27:14;;;;;;;8.37;1.80;;;10.00;42.50;;;;;;4972823;28;20707;-65
2021/12/01 05:29:40;;;;;;;9.73;2.03;;;10.10;42.70;;;;;;4972517;28;20189;-66
2021/12/01 05:32:06;;;;;;;7.80;1.70;;;9.70;43.60;;;;;;4970680;28;20189;-66
2021/12/01 05:34:32;;;;;;;9.60;1.98;;;9.30;46.10;;;;;;4972546;28;20200;-67
2021/12/01 05:37:00;;;;;;;8.10;1.73;;;9.80;46.30;;;;;;4978428;28;20209;-67
2021/12/01 05:39:29;;;;;;;9.23;1.90;;;9.80;44.70;;;;;;4973123;28;20437;-67
2021/12/01 05:41:56;;;;;;;8.85;2.28;;;10.00;42.30;;;;;;4970915;28;20190;-70
2021/12/01 05:44:22;;;;;;;7.50;1.60;;;10.40;41.60;;;;;;4972742;28;20663;-66
2021/12/01 05:46:48;;;;;;;9.93;2.03;;;10.40;41.60;;;;;;4972215;28;20615;-66
2021/12/01 05:49:14;;;;;;;8.63;1.90;;;10.40;40.90;;;;;;4978527;28;20178;-70
2021/12/01 05:51:39;;;;;;;14.80;2.80;;;10.30;41.50;;;;;;4972531;28;20189;-70
2021/12/01 05:54:05;;;;;;;9.67;1.87;;;10.00;41.70;;;;;;4970941;28;20507;-65
2021/12/01 05:56:31;;;;;;;11.80;2.07;;;10.20;42.20;;;;;;4977070;28;20202;-65
2021/12/01 05:58:57;;;;;;;13.60;2.50;;;9.80;43.80;;;;;;4978161;28;20270;-65
2021/12/01 06:01:22;;;;;;;8.02;1.70;;;9.50;44.60;;;;;;4987111;28;20297;-65
2021/12/01 06:03:48;;;;;;;9.90;2.00;;;9.70;44.70;;;;;;4970841;28;20655;-66
2021/12/01 06:06:14;;;;;;;10.53;2.47;;;9.40;45.70;;;;;;4973819;28;20664;-72
2021/12/01 06:08:40;;;;;;;8.40;1.70;;;9.60;44.30;;;;;;4991674;28;20208;-65
2021/12/01 06:11:06;;;;;;;9.45;1.90;;;9.80;44.00;;;;;;4981471;28;20610;-65
2021/12/01 06:13:31;;;;;;;8.73;1.87;;;9.80;44.00;;;;;;4971230;28;20213;-65
2021/12/01 06:15:57;;;;;;;10.00;1.90;;;10.30;41.30;;;;;;4959201;28;20453;-65
2021/12/01 06:18:23;;;;;;;7.30;1.67;;;9.80;43.00;;;;;;4976300;28;20662;-65
2021/12/01 06:20:49;;;;;;;10.32;2.40;;;9.60;44.40;;;;;;4982758;28;20637;-65
2021/12/01 06:23:15;;;;;;;8.97;2.07;;;9.90;42.80;;;;;;4973034;28;20321;-65
2021/12/01 06:25:41;;;;;;;8.03;1.77;;;9.90;43.20;;;;;;4985783;28;20508;-66
2021/12/01 06:28:06;;;;;;;9.13;1.90;;;10.10;41.60;;;;;;4972624;28;20464;-67
2021/12/01 06:30:34;;;;;;;10.07;2.30;;;10.10;41.50;;;;;;4972454;28;20644;-69
2021/12/01 06:33:00;;;;;;;10.02;1.90;;;10.00;41.00;;;;;;4972779;28;20185;-70
2021/12/01 06:35:26;;;;;;;8.48;1.77;;;9.80;42.90;;;;;;4971524;28;20179;-70
2021/12/01 06:37:56;;;;;;;9.00;1.90;;;9.90;42.30;;;;;;4987494;28;20261;-70
2021/12/01 06:40:25;;;;;;;9.18;1.90;;;10.30;40.50;;;;;;4987799;28;20181;-70
2021/12/01 06:42:51;;;;;;;9.38;1.92;;;12.50;43.60;;;;;;4972048;28;20594;-68
2021/12/01 06:45:18;;;;;;;9.18;1.88;;;9.80;42.30;;;;;;4972799;28;20640;-68
2021/12/01 06:47:44;;;;;;;9.93;2.20;;;9.70;41.90;;;;;;4985615;28;20587;-69
2021/12/01 06:50:11;;;;;;;9.02;1.80;;;9.80;42.30;;;;;;4984334;28;20182;-69
2021/12/01 06:52:38;;;;;;;10.77;2.10;;;10.10;41.40;;;;;;4991499;28;20533;-69
2021/12/01 06:55:05;;;;;;;14.02;2.55;;;9.70;43.30;;;;;;4972942;28;20524;-69
2021/12/01 06:57:31;;;;;;;8.57;1.88;;;10.10;40.00;;;;;;4970462;28;20202;-69
2021/12/01 06:59:57;;;;;;;10.90;1.97;;;10.10;39.70;;;;;;4973857;28;20724;-69
2021/12/01 07:02:22;;;;;;;12.00;2.03;;;9.80;41.00;;;;;;4972075;28;20472;-69
2021/12/01 07:04:48;;;;;;;12.00;2.30;;;9.40;43.30;;;;;;4972538;28;20256;-69
2021/12/01 07:07:14;;;;;;;109.20;8.03;;;;;;;;;;5015497;23;20228;-67
2021/12/01 07:09:41;;;;;;;24.13;2.33;;;;;;;;;;5013018;28;20189;-65
2021/12/01 07:12:07;;;;;;;21.80;2.00;;;9.40;41.50;;;;;;5017501;28;20442;-67
2021/12/01 07:14:33;;;;;;;25.02;2.35;;;9.60;40.70;;;;;;5013998;28;20181;-67
2021/12/01 07:16:58;;;;;;;34.00;3.03;;;9.80;40.20;;;;;;5011230;28;20184;-67
2021/12/01 07:19:24;;;;;;;27.83;2.40;;;;;;;;;;5029256;28;20682;-65
2021/12/01 07:21:50;;;;;;;29.65;2.33;;;;;;;;;;5003141;28;20184;-66
2021/12/01 07:24:19;;;;;;;18.03;1.80;;;;;;;;;;4994344;28;20203;-67
2021/12/01 07:26:45;;;;;;;34.25;2.70;;;;;;;;;;4993927;28;20507;-68
2021/12/01 07:29:11;;;;;;;37.50;3.07;;;10.00;37.80;;;;;;5002919;28;20219;-72
2021/12/01 07:31:37;;;;;;;36.10;3.00;;;10.30;36.80;;;;;;5009702;28;21005;-75
2021/12/01 07:34:02;;;;;;;22.83;2.30;;;9.90;39.40;;;;;;4998437;28;20181;-75
2021/12/01 07:36:28;;;;;;;20.53;2.03;;;;;;;;;;5013499;28;20180;-75
2021/12/01 07:38:56;;;;;;;21.25;2.15;;;;;;;;;;5013528;28;20612;-78
2021/12/01 07:41:22;;;;;;;25.38;2.30;;;9.90;39.40;;;;;;5014909;28;20259;-71
2021/12/01 07:43:48;;;;;;;57.35;4.95;;;;;;;;;;5009369;28;20189;-71
2021/12/01 07:46:15;;;;;;;36.65;3.42;;;10.30;37.20;;;;;;5005919;28;20212;-70
2021/12/01 07:48:41;;;;;;;15.93;1.92;;;;;;;;;;5009918;28;20568;-71
2021/12/01 07:51:07;;;;;;;25.77;2.40;;;;;;;;;;5001136;28;20173;-69
2021/12/01 07:53:34;;;;;;;23.88;2.33;;;10.10;38.00;;;;;;5007887;28;20478;-69
2021/12/01 07:56:02;;;;;;;22.05;2.20;;;;;;;;;;5014827;28;20191;-66
2021/12/01 07:58:28;;;;;;;23.33;2.35;;;;;;;;;;5005727;28;20655;-71
2021/12/01 08:00:54;;;;;;;23.73;2.47;;;10.10;38.30;;;;;;4999910;28;20184;-71
2021/12/01 08:03:20;;;;;;;34.20;2.93;;;;;;;;;;5000843;28;20428;-70
2021/12/01 08:05:46;;;;;;;40.27;3.00;;;;;;;;;;5012373;28;20220;-69
2021/12/01 08:08:12;;;;;;;18.88;1.90;;;;;;;;;;5009619;28;20479;-69
2021/12/01 08:10:38;;;;;;;20.80;2.05;;;;;;;;;;5011017;28;20188;-69
2021/12/01 08:13:04;;;;;;;23.37;2.40;;;;;;;;;;4993970;28;20174;-68
2021/12/01 08:15:30;;;;;;;34.83;3.10;;;10.40;38.00;;;;;;4993989;28;21067;-70
2021/12/01 08:17:56;;;;;;;30.77;3.00;;;10.30;37.90;;;;;;5011351;28;20447;-72
2021/12/01 08:20:22;;;;;;;24.87;2.57;;;;;;;;;;5002413;28;20440;-70
2021/12/01 08:22:49;;;;;;;28.45;2.58;;;;;;;;;;4996462;28;20532;-71
2021/12/01 08:25:15;;;;;;;22.27;2.22;;;;;;;;;;5006676;28;20846;-71
2021/12/01 08:27:41;;;;;;;13.48;1.73;;;10.60;37.40;;;;;;5002472;28;20240;-71
2021/12/01 08:30:07;;;;;;;22.83;2.47;;;;;;;;;;5011758;28;20607;-71
2021/12/01 08:32:34;;;;;;;29.30;2.80;;;;;;;;;;4994550;28;20185;-71
2021/12/01 08:34:59;;;;;;;35.93;2.87;;;;;;;;;;4999752;28;20200;-70
2021/12/01 08:37:26;;;;;;;27.70;2.80;;;11.30;36.40;;;;;;5006266;28;20444;-71
2021/12/01 08:39:52;;;;;;;40.30;3.23;;;11.10;36.70;;;;;;4998455;28;20515;-71
2021/12/01 08:42:23;;;;;;;31.52;2.80;;;11.30;36.40;;;;;;5006495;28;20483;-71
2021/12/01 08:44:50;;;;;;;25.03;2.43;;;11.80;34.40;;;;;;5000410;28;20213;-70
2021/12/01 08:47:20;;;;;;;25.13;2.40;;;11.50;35.30;;;;;;5008285;28;20483;-75
2021/12/01 08:49:47;;;;;;;16.93;2.03;;;11.50;35.80;;;;;;5004353;28;20448;-70
2021/12/01 08:52:13;;;;;;;12.87;1.77;;;;;;;;;;5007694;28;20428;-70
2021/12/01 08:54:39;;;;;;;19.43;2.03;;;11.40;36.00;;;;;;5015001;28;20507;-70
2021/12/01 08:57:05;;;;;;;23.03;2.23;;;11.20;37.00;;;;;;5011173;28;20455;-68
2021/12/01 08:59:32;;;;;;;20.43;2.10;;;10.90;38.50;;;;;;5002158;28;20498;-70
2021/12/01 09:02:00;;;;;;;28.43;2.67;;;10.70;38.40;;;;;;4995870;28;20792;-70
2021/12/01 09:04:26;;;;;;;27.17;2.58;;;10.60;39.60;;;;;;5013275;28;20424;-70
2021/12/01 09:06:52;;;;;;;34.47;2.70;;;;;;;;;;4999682;28;20259;-70
2021/12/01 09:09:18;;;;;;;26.97;2.40;;;10.80;39.60;;;;;;5008488;28;20980;-71
2021/12/01 09:11:49;;;;;;;30.07;2.70;;;11.10;38.60;;;;;;4994288;28;20425;-72
2021/12/01 09:14:16;;;;;;;26.17;2.33;;;;;;;;;;4996661;28;20421;-69
2021/12/01 09:16:42;;;;;;;31.33;2.77;;;;;;;;;;5000449;28;20443;-71
2021/12/01 09:19:08;;;;;;;19.60;2.23;;;11.30;38.40;;;;;;5006053;28;20486;-71
2021/12/01 09:21:34;;;;;;;18.73;1.97;;;;;;;;;;5006411;28;20435;-71
2021/12/01 09:24:01;;;;;;;12.63;1.67;;;11.70;37.20;;;;;;5011553;28;20424;-71
2021/12/01 09:26:27;;;;;;;28.00;2.43;;;11.70;37.50;;;;;;5010773;28;20463;-71
2021/12/01 09:28:52;;;;;;;33.17;2.80;;;11.50;38.30;;;;;;5006811;28;20795;-71
2021/12/01 09:31:18;;;;;;;49.07;3.67;;;11.90;37.00;;;;;;5006953;28;20182;-71
2021/12/01 09:33:44;;;;;;;21.53;2.33;;;;;;;;;;5006851;28;20185;-69
2021/12/01 09:36:11;;;;;;;37.97;3.57;;;;;;;;;;5010287;28;20241;-71
2021/12/01 09:38:37;;;;;;;29.67;2.97;;;;;;;;;;4994620;28;20501;-68
2021/12/01 09:41:03;;;;;;;25.23;2.40;;;12.70;35.60;;;;;;5006190;28;20916;-71
2021/12/01 09:43:31;;;;;;;19.37;2.07;;;13.10;34.60;;;;;;4992065;28;20522;-71
2021/12/01 09:45:59;;;;;;;26.03;2.50;;;12.30;36.20;;;;;;4991396;28;20452;-71
2021/12/01 09:48:26;;;;;;;15.50;1.97;;;12.40;35.70;;;;;;5000367;28;20457;-71
2021/12/01 09:50:52;;;;;;;28.40;2.87;;;12.20;37.20;;;;;;4995452;28;20514;-71
2021/12/01 09:53:17;;;;;;;19.57;2.10;;;12.20;36.90;;;;;;4991780;28;20445;-71
2021/12/01 09:55:43;;;;;;;23.60;2.33;;;11.90;37.00;;;;;;5004281;28;20432;-72
2021/12/01 09:58:22;;;;;;;29.20;2.87;;;12.10;37.40;;;;;;5004788;28;20735;-71
2021/12/01 10:00:52;;;;;;;21.13;2.10;;;11.90;37.70;;;;;;4991650;28;20918;-71
2021/12/01 10:03:18;;;;;;;26.67;2.50;;;11.80;38.00;;;;;;5009967;28;21963;-71
2021/12/01 10:05:47;;;;;;;31.03;2.90;;;12.20;36.70;;;;;;4997002;28;20507;-71
2021/12/01 10:08:21;;;;;;;25.97;2.70;;;12.40;37.10;;;;;;5004345;28;20513;-71
2021/12/01 10:10:48;;;;;;;28.57;2.60;;;;;;;;;;5000641;28;20421;-70
2021/12/01 10:13:15;;;;;;;29.57;2.87;;;12.80;36.20;;;;;;5003959;28;20604;-71
2021/12/01 10:15:41;;;;;;;27.07;2.70;;;;;;;;;;4999906;28;20425;-68
2021/12/01 10:18:17;;;;;;;14.00;1.90;;;;;;;;;;4994233;28;20810;-70
2021/12/01 10:20:44;;;;;;;27.73;2.80;;;;;;;;;;5025894;28;20419;-68
2021/12/01 10:23:12;;;;;;;18.67;2.00;;;12.40;36.00;;;;;;4999180;28;20429;-70
2021/12/01 10:25:39;;;;;;;20.73;2.30;;;12.20;36.40;;;;;;5006494;28;20437;-71
2021/12/01 10:28:05;;;;;;;21.17;2.60;;;12.20;36.40;;;;;;5010677;28;20471;-71
2021/12/01 10:30:40;;;;;;;15.67;2.07;;;;;;;;;;5014071;28;20429;-71
2021/12/01 10:33:17;;;;;;;19.70;2.03;;;12.70;34.90;;;;;;5010826;28;20408;-68
2021/12/01 10:35:43;;;;;;;20.03;2.23;;;12.90;34.50;;;;;;5003867;28;20421;-70
2021/12/01 10:38:10;;;;;;;24.20;2.33;;;12.70;34.30;;;;;;4996025;28;20449;-68
2021/12/01 10:40:37;;;;;;;26.00;2.57;;;12.60;35.40;;;;;;5004198;28;20435;-68
2021/12/01 10:43:06;;;;;;;19.87;2.07;;;12.60;36.00;;;;;;5014372;28;20422;-70
2021/12/01 10:45:45;;;;;;;23.83;2.60;;;;;;;;;;5022112;28;20439;-68
2021/12/01 10:48:23;;;;;;;20.33;2.30;;;12.30;37.30;;;;;;5007654;28;20582;-70
2021/12/01 10:50:48;;;;;;;26.30;2.60;;;12.40;36.80;;;;;;5015899;28;20418;-69
2021/12/01 10:53:22;;;;;;;23.60;2.50;;;12.50;36.60;;;;;;5009789;28;20432;-68
2021/12/01 10:55:48;;;;;;;25.07;2.60;;;;;;;;;;5013409;28;20269;-70
2021/12/01 10:58:15;;;;;;;19.67;2.23;;;;;;;;;;5017855;28;20540;-70
2021/12/01 11:00:43;;;;;;;25.10;2.50;;;;;;;;;;5013009;28;20417;-69
2021/12/01 11:03:19;;;;;;;20.57;2.13;;;12.30;37.00;;;;;;5014293;28;20421;-69
2021/12/01 11:05:50;;;;;;;25.27;2.47;;;;;;;;;;5013132;28;20436;-69
2021/12/01 11:08:22;;;;;;;19.63;2.27;;;12.30;37.70;;;;;;5019613;28;20476;-70
2021/12/01 11:10:53;;;;;;;21.27;2.40;;;12.70;36.70;;;;;;5015907;28;20428;-70
2021/12/01 11:13:21;;;;;;;22.53;2.23;;;12.70;36.00;;;;;;5009276;28;20436;-69
2021/12/01 11:15:55;;;;;;;29.20;2.90;;;;;;;;;;5006594;28;20447;-70
2021/12/01 11:18:23;;;;;;;25.33;2.70;;;12.80;36.40;;;;;;5016918;28;20837;-70
2021/12/01 11:20:50;;;;;;;25.83;2.53;;;;;;;;;;5030078;28;20503;-69
2021/12/01 11:23:21;;;;;;;24.57;2.67;;;13.10;35.90;;;;;;5014041;28;20418;-69
2021/12/01 11:26:08;;;;;;;14.53;1.80;;;;;;;;;;5025153;28;20439;-68
2021/12/01 11:28:41;;;;;;;24.27;2.50;;;;;;;;;;5014705;28;20446;-70
2021/12/01 11:31:09;;;;;;;11.50;1.80;;;;;;;;;;5023808;28;20781;-69
2021/12/01 11:33:36;;;;;;;23.23;2.40;;;;;;;;;;4993812;28;20827;-69
2021/12/01 11:36:05;;;;;;;36.30;3.73;;;;;;;;;;4993373;28;20738;-70
2021/12/01 11:38:31;;;;;;;75.87;4.93;;;;;;;;;;4994748;28;20437;-70
2021/12/01 11:40:58;;;;;;;17.93;2.00;;;;;;;;;;5027343;28;20429;-70
2021/12/01 11:43:30;;;;;;;19.90;2.10;;;13.10;37.80;;;;;;5033447;28;20461;-69
2021/12/01 11:45:56;;;;;;;17.43;2.03;;;;;;;;;;5034045;28;20390;-68
2021/12/01 11:48:31;;;;;;;64.63;4.37;;;13.90;35.40;;;;;;5033703;28;20489;-70
2021/12/01 11:51:19;;;;;;;23.97;2.33;;;13.40;36.80;;;;;;5023364;28;20515;-70
2021/12/01 11:53:48;;;;;;;22.47;2.20;;;13.30;37.00;;;;;;5014115;28;20762;-70
2021/12/01 11:56:32;;;;;;;23.97;2.87;;;;;;;;;;5013983;28;20912;-67
2021/12/01 11:59:04;;;;;;;24.07;2.10;;;;;;;;;;5012882;28;20427;-70
2021/12/01 12:01:30;;;;;;;13.70;1.73;;;;;;;;;;5022762;28;20801;-70
2021/12/01 12:04:01;;;;;;;15.37;1.90;;;13.20;37.80;;;;;;5033837;28;20404;-70
2021/12/01 12:06:29;;;;;;;20.90;2.30;;;;;;;;;;5033248;28;20792;-70
2021/12/01 12:08:55;;;;;;;26.70;2.30;;;;;;;;;;5033513;28;20440;-69
2021/12/01 12:11:37;;;;;;;18.53;2.07;;;;;;;;;;5030793;28;20445;-69
2021/12/01 12:14:10;;;;;;;16.37;1.90;;;;;;;;;;5030624;28;20425;-69
2021/12/01 12:16:38;;;;;;;14.97;1.80;;;14.10;35.90;;;;;;5033093;28;20444;-70
2021/12/01 12:19:04;;;;;;;28.20;2.63;;;14.00;36.30;;;;;;5033422;28;20837;-70
2021/12/01 12:24:13;;;;;;;16.50;1.90;;;14.10;35.60;;;;;;5013991;28;20458;-69
2021/12/01 12:26:44;;;;;;;18.77;2.03;;;;;;;;;;5011806;28;21026;-70
2021/12/01 12:29:24;;;;;;;23.70;2.30;;;13.70;37.20;;;;;;5013271;28;20425;-70
2021/12/01 12:31:51;;;;;;;31.20;2.70;;;;;;;;;;5013423;28;20495;-70
2021/12/01 12:34:20;;;;;;;19.27;2.00;;;13.40;36.90;;;;;;5014455;28;20824;-70
2021/12/01 12:36:47;;;;;;;11.60;1.70;;;13.00;38.10;;;;;;5007368;28;20442;-67
2021/12/01 12:39:23;;;;;;;16.10;2.00;;;13.20;38.10;;;;;;5010475;28;20428;-70
2021/12/01 12:41:55;;;;;;;33.50;2.90;;;;;;;;;;5008176;28;20437;-70
2021/12/01 12:44:31;;;;;;;18.93;2.13;;;13.80;36.00;;;;;;5012623;28;20429;-69
2021/12/01 12:47:12;;;;;;;29.13;2.90;;;13.90;35.80;;;;;;5008872;28;20453;-70
2021/12/01 12:49:42;;;;;;;28.23;2.93;;;;;;;;;;5010324;28;20430;-70
2021/12/01 12:52:26;;;;;;;27.30;2.93;;;13.60;36.60;;;;;;5007968;28;20914;-70
2021/12/01 12:54:58;;;;;;;25.03;2.33;;;;;;;;;;5000470;28;20485;-70
2021/12/01 12:57:45;;;;;;;15.93;1.97;;;13.80;36.00;;;;;;4993255;28;20796;-70
2021/12/01 13:00:20;;;;;;;16.37;2.20;;;;;;;;;;5006839;28;20469;-69
2021/12/01 13:02:46;;;;;;;28.07;2.50;;;;;;;;;;5009241;28;20822;-69
2021/12/01 13:05:12;;;;;;;23.40;2.30;;;;;;;;;;5007861;28;20505;-70
2021/12/01 13:07:38;;;;;;;22.83;2.53;;;;;;;;;;5003835;28;20524;-70
2021/12/01 13:10:13;;;;;;;17.07;2.00;;;;;;;;;;5010432;28;20792;-70
2021/12/01 13:13:00;;;;;;;24.23;2.50;;;12.60;40.80;;;;;;5010274;28;20496;-70
2021/12/01 13:15:26;;;;;;;30.03;2.80;;;;;;;;;;5007771;28;20441;-70
2021/12/01 13:17:55;;;;;;;37.60;3.20;;;12.60;42.80;;;;;;5006502;28;20545;-70